sim
Sign-in with your pilot id or email,
or register
Callsign
Passwort

Schedule Details

Flight Number: EWG4066
Departure: Dortmund Airport (EDLW) at 14:15
Arrival: Munich Airport (EDDM) at 15:20
Route: Eurowings Passenger Schedule. Enter filed route here before submitting Pirep.

Weather Information
Getting current METAR information for EDLW 291550Z 23008KT 3700 BR BKN004 OVC017 13/12 Q1016
Getting current METAR information for EDDM 291550Z 26008KT 230V290 9999 BKN014 12/09 Q1019 NOSIG

Schedule Frequency

Route Map